sensor_id;sensor_type;location;lat;lon;timestamp;temperature;humidity
57026;DHT22;43961;52.940;6.834;2023-04-01T00:00:18;9.90;99.90
57026;DHT22;43961;52.940;6.834;2023-04-01T00:02:44;10.00;99.90
57026;DHT22;43961;52.940;6.834;2023-04-01T00:05:10;10.00;99.90
57026;DHT22;43961;52.940;6.834;2023-04-01T00:07:37;10.00;99.90
57026;DHT22;43961;52.940;6.834;2023-04-01T00:10:04;9.90;99.90
57026;DHT22;43961;52.940;6.834;2023-04-01T00:12:29;10.00;99.90
57026;DHT22;43961;52.940;6.834;2023-04-01T00:14:56;10.00;99.90
57026;DHT22;43961;52.940;6.834;2023-04-01T00:17:22;10.00;99.90
57026;DHT22;43961;52.940;6.834;2023-04-01T00:19:49;10.00;99.90
57026;DHT22;43961;52.940;6.834;2023-04-01T00:22:14;10.00;99.90
57026;DHT22;43961;52.940;6.834;2023-04-01T00:24:42;10.00;99.90
57026;DHT22;43961;52.940;6.834;2023-04-01T00:27:07;10.00;99.90
57026;DHT22;43961;52.940;6.834;2023-04-01T00:29:34;9.90;99.90
57026;DHT22;43961;52.940;6.834;2023-04-01T00:32:00;9.90;99.90
57026;DHT22;43961;52.940;6.834;2023-04-01T00:34:26;10.00;99.90
57026;DHT22;43961;52.940;6.834;2023-04-01T00:36:52;9.90;99.90
57026;DHT22;43961;52.940;6.834;2023-04-01T00:39:19;9.90;99.90
57026;DHT22;43961;52.940;6.834;2023-04-01T00:41:45;9.90;99.90
57026;DHT22;43961;52.940;6.834;2023-04-01T00:44:26;9.90;99.90
57026;DHT22;43961;52.940;6.834;2023-04-01T00:46:52;9.90;99.90
57026;DHT22;43961;52.940;6.834;2023-04-01T00:49:21;9.80;99.90
57026;DHT22;43961;52.940;6.834;2023-04-01T00:51:51;9.90;99.90
57026;DHT22;43961;52.940;6.834;2023-04-01T00:54:19;9.90;99.90
57026;DHT22;43961;52.940;6.834;2023-04-01T00:56:49;9.90;99.90
57026;DHT22;43961;52.940;6.834;2023-04-01T00:59:25;9.90;99.90
57026;DHT22;43961;52.940;6.834;2023-04-01T01:01:52;9.90;99.90
57026;DHT22;43961;52.940;6.834;2023-04-01T01:04:29;9.80;99.90
57026;DHT22;43961;52.940;6.834;2023-04-01T01:32:19;9.80;99.90
57026;DHT22;43961;52.940;6.834;2023-04-01T01:37:42;9.70;99.90
57026;DHT22;43961;52.940;6.834;2023-04-01T01:40:11;9.70;99.90
57026;DHT22;43961;52.940;6.834;2023-04-01T01:42:39;9.70;99.90
57026;DHT22;43961;52.940;6.834;2023-04-01T01:45:07;9.70;99.90
57026;DHT22;43961;52.940;6.834;2023-04-01T01:47:34;9.80;99.90
57026;DHT22;43961;52.940;6.834;2023-04-01T01:50:01;9.70;99.90
57026;DHT22;43961;52.940;6.834;2023-04-01T01:52:28;9.70;99.90
57026;DHT22;43961;52.940;6.834;2023-04-01T01:54:57;9.70;99.90
57026;DHT22;43961;52.940;6.834;2023-04-01T01:57:25;9.70;99.90
57026;DHT22;43961;52.940;6.834;2023-04-01T01:59:54;9.70;99.90
57026;DHT22;43961;52.940;6.834;2023-04-01T02:02:22;9.70;99.90
57026;DHT22;43961;52.940;6.834;2023-04-01T02:04:52;9.60;99.90
57026;DHT22;43961;52.940;6.834;2023-04-01T02:07:26;9.70;99.90
57026;DHT22;43961;52.940;6.834;2023-04-01T02:09:54;9.70;99.90
57026;DHT22;43961;52.940;6.834;2023-04-01T02:12:21;9.60;99.90
57026;DHT22;43961;52.940;6.834;2023-04-01T02:14:56;9.60;99.90
57026;DHT22;43961;52.940;6.834;2023-04-01T02:17:30;9.60;99.90
57026;DHT22;43961;52.940;6.834;2023-04-01T02:20:00;9.60;99.90
57026;DHT22;43961;52.940;6.834;2023-04-01T02:22:29;9.60;99.90
57026;DHT22;43961;52.940;6.834;2023-04-01T02:25:08;9.50;99.90
57026;DHT22;43961;52.940;6.834;2023-04-01T02:27:34;9.60;99.90
57026;DHT22;43961;52.940;6.834;2023-04-01T02:30:01;9.50;99.90
57026;DHT22;43961;52.940;6.834;2023-04-01T02:32:27;9.60;99.90
57026;DHT22;43961;52.940;6.834;2023-04-01T02:34:54;9.50;99.90
57026;DHT22;43961;52.940;6.834;2023-04-01T02:37:22;9.50;99.90
57026;DHT22;43961;52.940;6.834;2023-04-01T02:39:48;9.50;99.90
57026;DHT22;43961;52.940;6.834;2023-04-01T02:42:14;9.50;99.90
57026;DHT22;43961;52.940;6.834;2023-04-01T02:44:41;9.50;99.90
57026;DHT22;43961;52.940;6.834;2023-04-01T02:47:07;9.50;99.90
57026;DHT22;43961;52.940;6.834;2023-04-01T02:49:32;9.50;99.90
57026;DHT22;43961;52.940;6.834;2023-04-01T02:51:58;9.50;99.90
57026;DHT22;43961;52.940;6.834;2023-04-01T02:54:24;9.50;99.90
57026;DHT22;43961;52.940;6.834;2023-04-01T02:56:50;9.70;99.90
57026;DHT22;43961;52.940;6.834;2023-04-01T02:59:16;9.50;99.90
57026;DHT22;43961;52.940;6.834;2023-04-01T03:01:41;9.50;99.90
57026;DHT22;43961;52.940;6.834;2023-04-01T03:04:07;9.50;99.90
57026;DHT22;43961;52.940;6.834;2023-04-01T03:06:33;9.60;99.90
57026;DHT22;43961;52.940;6.834;2023-04-01T03:08:59;9.60;99.90
57026;DHT22;43961;52.940;6.834;2023-04-01T03:11:24;9.60;99.90
57026;DHT22;43961;52.940;6.834;2023-04-01T03:13:52;9.60;99.90
57026;DHT22;43961;52.940;6.834;2023-04-01T03:16:18;9.50;99.90
57026;DHT22;43961;52.940;6.834;2023-04-01T03:18:43;9.60;99.90
57026;DHT22;43961;52.940;6.834;2023-04-01T03:21:17;9.60;99.90
57026;DHT22;43961;52.940;6.834;2023-04-01T03:23:43;9.60;99.90
57026;DHT22;43961;52.940;6.834;2023-04-01T03:26:09;9.60;99.90
57026;DHT22;43961;52.940;6.834;2023-04-01T03:28:36;9.60;99.90
57026;DHT22;43961;52.940;6.834;2023-04-01T03:31:01;9.50;99.90
57026;DHT22;43961;52.940;6.834;2023-04-01T03:33:27;9.60;99.90
57026;DHT22;43961;52.940;6.834;2023-04-01T03:35:53;9.60;99.90
57026;DHT22;43961;52.940;6.834;2023-04-01T03:38:18;9.50;99.90
57026;DHT22;43961;52.940;6.834;2023-04-01T03:40:45;9.60;99.90
57026;DHT22;43961;52.940;6.834;2023-04-01T03:43:10;9.60;99.90
57026;DHT22;43961;52.940;6.834;2023-04-01T03:45:46;9.50;99.90
57026;DHT22;43961;52.940;6.834;2023-04-01T03:48:13;9.60;99.90
57026;DHT22;43961;52.940;6.834;2023-04-01T03:50:39;9.60;99.90
57026;DHT22;43961;52.940;6.834;2023-04-01T03:53:05;9.50;99.90
57026;DHT22;43961;52.940;6.834;2023-04-01T03:55:31;9.60;99.90
57026;DHT22;43961;52.940;6.834;2023-04-01T03:57:57;9.50;99.90
57026;DHT22;43961;52.940;6.834;2023-04-01T04:00:22;9.50;99.90
57026;DHT22;43961;52.940;6.834;2023-04-01T04:02:48;9.50;99.90
57026;DHT22;43961;52.940;6.834;2023-04-01T04:05:14;9.50;99.90
57026;DHT22;43961;52.940;6.834;2023-04-01T04:07:40;9.50;99.90
57026;DHT22;43961;52.940;6.834;2023-04-01T04:10:06;9.50;99.90
57026;DHT22;43961;52.940;6.834;2023-04-01T04:12:32;9.50;99.90
57026;DHT22;43961;52.940;6.834;2023-04-01T04:14:58;9.50;99.90
57026;DHT22;43961;52.940;6.834;2023-04-01T04:17:23;9.50;99.90
57026;DHT22;43961;52.940;6.834;2023-04-01T04:19:49;9.50;99.90
57026;DHT22;43961;52.940;6.834;2023-04-01T04:22:15;9.50;99.90
57026;DHT22;43961;52.940;6.834;2023-04-01T04:24:40;9.50;99.90
57026;DHT22;43961;52.940;6.834;2023-04-01T04:27:06;9.50;99.90
57026;DHT22;43961;52.940;6.834;2023-04-01T04:29:32;9.50;99.90
57026;DHT22;43961;52.940;6.834;2023-04-01T04:31:57;9.50;99.90
57026;DHT22;43961;52.940;6.834;2023-04-01T04:34:23;9.50;99.90
57026;DHT22;43961;52.940;6.834;2023-04-01T04:36:49;9.50;99.90
57026;DHT22;43961;52.940;6.834;2023-04-01T04:39:15;9.50;99.90
57026;DHT22;43961;52.940;6.834;2023-04-01T04:41:41;9.50;99.90
57026;DHT22;43961;52.940;6.834;2023-04-01T04:44:06;9.50;99.90
57026;DHT22;43961;52.940;6.834;2023-04-01T04:46:32;9.50;99.90
57026;DHT22;43961;52.940;6.834;2023-04-01T04:48:58;9.50;99.90
57026;DHT22;43961;52.940;6.834;2023-04-01T04:51:24;9.40;99.90
57026;DHT22;43961;52.940;6.834;2023-04-01T04:53:50;9.50;99.90
57026;DHT22;43961;52.940;6.834;2023-04-01T04:56:21;9.50;99.90
57026;DHT22;43961;52.940;6.834;2023-04-01T04:58:47;9.40;99.90
57026;DHT22;43961;52.940;6.834;2023-04-01T05:01:15;9.50;99.90
57026;DHT22;43961;52.940;6.834;2023-04-01T05:03:42;9.50;99.90
57026;DHT22;43961;52.940;6.834;2023-04-01T05:06:09;9.50;99.90
57026;DHT22;43961;52.940;6.834;2023-04-01T05:08:35;9.60;99.90
57026;DHT22;43961;52.940;6.834;2023-04-01T05:11:02;9.50;99.90
57026;DHT22;43961;52.940;6.834;2023-04-01T05:13:28;9.50;99.90
57026;DHT22;43961;52.940;6.834;2023-04-01T05:15:54;9.50;99.90
57026;DHT22;43961;52.940;6.834;2023-04-01T05:18:21;9.50;99.90
57026;DHT22;43961;52.940;6.834;2023-04-01T05:20:51;9.40;99.90
57026;DHT22;43961;52.940;6.834;2023-04-01T05:23:18;9.40;99.90
57026;DHT22;43961;52.940;6.834;2023-04-01T05:25:44;9.50;99.90
57026;DHT22;43961;52.940;6.834;2023-04-01T05:28:11;9.40;99.90
57026;DHT22;43961;52.940;6.834;2023-04-01T05:30:39;9.40;99.90
57026;DHT22;43961;52.940;6.834;2023-04-01T05:33:04;9.50;99.90
57026;DHT22;43961;52.940;6.834;2023-04-01T05:35:30;9.40;99.90
57026;DHT22;43961;52.940;6.834;2023-04-01T05:37:56;9.40;99.90
57026;DHT22;43961;52.940;6.834;2023-04-01T05:40:21;9.40;99.90
57026;DHT22;43961;52.940;6.834;2023-04-01T05:42:47;9.30;99.90
57026;DHT22;43961;52.940;6.834;2023-04-01T05:45:13;9.50;99.90
57026;DHT22;43961;52.940;6.834;2023-04-01T05:47:41;9.40;99.90
57026;DHT22;43961;52.940;6.834;2023-04-01T05:50:09;9.40;99.90
57026;DHT22;43961;52.940;6.834;2023-04-01T05:52:36;9.40;99.90
57026;DHT22;43961;52.940;6.834;2023-04-01T05:55:03;9.40;99.90
57026;DHT22;43961;52.940;6.834;2023-04-01T05:57:28;9.40;99.90
57026;DHT22;43961;52.940;6.834;2023-04-01T05:59:54;9.40;99.90
57026;DHT22;43961;52.940;6.834;2023-04-01T06:02:20;9.30;99.90
57026;DHT22;43961;52.940;6.834;2023-04-01T06:04:46;9.30;99.90
57026;DHT22;43961;52.940;6.834;2023-04-01T06:07:14;9.30;99.90
57026;DHT22;43961;52.940;6.834;2023-04-01T06:09:41;9.30;99.90
57026;DHT22;43961;52.940;6.834;2023-04-01T06:15:03;9.40;99.90
57026;DHT22;43961;52.940;6.834;2023-04-01T06:17:49;9.40;99.90
57026;DHT22;43961;52.940;6.834;2023-04-01T06:28:53;9.60;99.90
57026;DHT22;43961;52.940;6.834;2023-04-01T06:39:30;9.80;99.90
57026;DHT22;43961;52.940;6.834;2023-04-01T06:48:02;9.80;99.90
57026;DHT22;43961;52.940;6.834;2023-04-01T06:50:45;9.80;99.90
57026;DHT22;43961;52.940;6.834;2023-04-01T06:56:15;9.80;99.90
57026;DHT22;43961;52.940;6.834;2023-04-01T06:58:44;9.90;99.90
57026;DHT22;43961;52.940;6.834;2023-04-01T07:01:16;9.90;99.90
57026;DHT22;43961;52.940;6.834;2023-04-01T07:03:50;9.90;99.90
57026;DHT22;43961;52.940;6.834;2023-04-01T07:06:52;10.00;99.90
57026;DHT22;43961;52.940;6.834;2023-04-01T07:09:26;10.00;99.90
57026;DHT22;43961;52.940;6.834;2023-04-01T07:11:56;10.00;99.90
57026;DHT22;43961;52.940;6.834;2023-04-01T07:14:26;10.10;99.90
57026;DHT22;43961;52.940;6.834;2023-04-01T07:22:05;10.20;99.90
57026;DHT22;43961;52.940;6.834;2023-04-01T07:24:39;10.20;99.90
57026;DHT22;43961;52.940;6.834;2023-04-01T07:27:09;10.20;99.90
57026;DHT22;43961;52.940;6.834;2023-04-01T07:29:36;10.30;99.90
57026;DHT22;43961;52.940;6.834;2023-04-01T07:32:20;10.30;99.90
57026;DHT22;43961;52.940;6.834;2023-04-01T07:40:30;10.50;99.90
57026;DHT22;43961;52.940;6.834;2023-04-01T07:50:41;10.60;99.90
57026;DHT22;43961;52.940;6.834;2023-04-01T07:53:31;10.60;99.90
57026;DHT22;43961;52.940;6.834;2023-04-01T08:07:20;10.50;99.90
57026;DHT22;43961;52.940;6.834;2023-04-01T08:10:11;10.50;99.90
57026;DHT22;43961;52.940;6.834;2023-04-01T08:20:59;10.40;99.90
57026;DHT22;43961;52.940;6.834;2023-04-01T08:23:33;10.40;99.90
57026;DHT22;43961;52.940;6.834;2023-04-01T08:26:13;10.40;99.90
57026;DHT22;43961;52.940;6.834;2023-04-01T08:28:49;10.40;99.90
57026;DHT22;43961;52.940;6.834;2023-04-01T08:31:43;10.50;99.90
57026;DHT22;43961;52.940;6.834;2023-04-01T08:34:36;10.50;99.90
57026;DHT22;43961;52.940;6.834;2023-04-01T08:37:16;10.50;99.90
57026;DHT22;43961;52.940;6.834;2023-04-01T08:39:47;10.50;99.90
57026;DHT22;43961;52.940;6.834;2023-04-01T08:56:40;10.70;99.90
57026;DHT22;43961;52.940;6.834;2023-04-01T09:10:49;10.80;99.90
57026;DHT22;43961;52.940;6.834;2023-04-01T09:25:34;10.90;99.90
57026;DHT22;43961;52.940;6.834;2023-04-01T09:28:15;11.00;99.90
57026;DHT22;43961;52.940;6.834;2023-04-01T09:33:43;11.00;99.90
57026;DHT22;43961;52.940;6.834;2023-04-01T09:36:21;11.10;99.90
57026;DHT22;43961;52.940;6.834;2023-04-01T09:38:58;11.10;99.90
57026;DHT22;43961;52.940;6.834;2023-04-01T09:44:23;11.10;99.90
57026;DHT22;43961;52.940;6.834;2023-04-01T09:47:19;11.10;99.90
57026;DHT22;43961;52.940;6.834;2023-04-01T09:50:26;11.10;99.90
57026;DHT22;43961;52.940;6.834;2023-04-01T09:53:04;11.20;99.90
57026;DHT22;43961;52.940;6.834;2023-04-01T09:55:52;11.30;99.90
57026;DHT22;43961;52.940;6.834;2023-04-01T09:58:58;11.30;99.90
57026;DHT22;43961;52.940;6.834;2023-04-01T10:01:55;11.20;99.90
57026;DHT22;43961;52.940;6.834;2023-04-01T10:10:46;11.20;99.90
57026;DHT22;43961;52.940;6.834;2023-04-01T10:32:27;11.40;99.90
57026;DHT22;43961;52.940;6.834;2023-04-01T10:59:53;10.40;99.90
57026;DHT22;43961;52.940;6.834;2023-04-01T11:11:09;10.10;99.90
57026;DHT22;43961;52.940;6.834;2023-04-01T11:22:45;10.10;99.90
57026;DHT22;43961;52.940;6.834;2023-04-01T11:33:43;10.00;99.90
57026;DHT22;43961;52.940;6.834;2023-04-01T11:44:39;10.00;99.90
57026;DHT22;43961;52.940;6.834;2023-04-01T11:55:23;10.00;99.90
57026;DHT22;43961;52.940;6.834;2023-04-01T11:58:03;9.90;99.90
57026;DHT22;43961;52.940;6.834;2023-04-01T12:09:58;9.90;99.90
57026;DHT22;43961;52.940;6.834;2023-04-01T12:18:03;9.90;99.90
57026;DHT22;43961;52.940;6.834;2023-04-01T12:20:50;9.90;99.90
57026;DHT22;43961;52.940;6.834;2023-04-01T12:29:21;10.00;99.90
57026;DHT22;43961;52.940;6.834;2023-04-01T12:35:37;9.90;99.90
57026;DHT22;43961;52.940;6.834;2023-04-01T12:40:47;9.80;99.90
57026;DHT22;43961;52.940;6.834;2023-04-01T12:44:02;9.70;99.90
57026;DHT22;43961;52.940;6.834;2023-04-01T12:49:41;9.50;99.90
57026;DHT22;43961;52.940;6.834;2023-04-01T13:14:55;9.40;99.90
57026;DHT22;43961;52.940;6.834;2023-04-01T13:17:32;9.40;99.90
57026;DHT22;43961;52.940;6.834;2023-04-01T13:28:17;9.30;99.90
57026;DHT22;43961;52.940;6.834;2023-04-01T13:31:09;9.20;99.90
57026;DHT22;43961;52.940;6.834;2023-04-01T13:39:29;9.30;99.90
57026;DHT22;43961;52.940;6.834;2023-04-01T13:42:13;9.30;99.90
57026;DHT22;43961;52.940;6.834;2023-04-01T13:44:51;9.20;99.90
57026;DHT22;43961;52.940;6.834;2023-04-01T13:47:36;9.20;99.90
57026;DHT22;43961;52.940;6.834;2023-04-01T13:50:19;9.20;99.90
57026;DHT22;43961;52.940;6.834;2023-04-01T13:55:35;9.10;99.90
57026;DHT22;43961;52.940;6.834;2023-04-01T13:58:34;9.10;99.90
57026;DHT22;43961;52.940;6.834;2023-04-01T14:01:25;9.10;99.90
57026;DHT22;43961;52.940;6.834;2023-04-01T14:04:24;9.10;99.90
57026;DHT22;43961;52.940;6.834;2023-04-01T14:12:39;9.00;99.90
57026;DHT22;43961;52.940;6.834;2023-04-01T14:24:04;9.00;99.90
57026;DHT22;43961;52.940;6.834;2023-04-01T14:43:47;9.00;99.90
57026;DHT22;43961;52.940;6.834;2023-04-01T14:49:35;8.90;99.90
57026;DHT22;43961;52.940;6.834;2023-04-01T14:54:48;9.00;99.90
57026;DHT22;43961;52.940;6.834;2023-04-01T14:57:31;8.80;99.90
57026;DHT22;43961;52.940;6.834;2023-04-01T15:14:51;8.90;99.90
57026;DHT22;43961;52.940;6.834;2023-04-01T15:26:12;8.90;99.90
57026;DHT22;43961;52.940;6.834;2023-04-01T15:39:57;8.80;99.90
57026;DHT22;43961;52.940;6.834;2023-04-01T15:47:46;8.70;99.90
57026;DHT22;43961;52.940;6.834;2023-04-01T15:56:06;8.60;99.90
57026;DHT22;43961;52.940;6.834;2023-04-01T16:01:51;8.40;99.90
57026;DHT22;43961;52.940;6.834;2023-04-01T16:12:42;8.40;99.90
57026;DHT22;43961;52.940;6.834;2023-04-01T16:15:27;8.40;99.90
57026;DHT22;43961;52.940;6.834;2023-04-01T16:20:25;8.30;99.90
57026;DHT22;43961;52.940;6.834;2023-04-01T16:25:50;8.20;99.90
57026;DHT22;43961;52.940;6.834;2023-04-01T16:28:44;8.20;99.90
57026;DHT22;43961;52.940;6.834;2023-04-01T16:31:27;8.20;99.90
57026;DHT22;43961;52.940;6.834;2023-04-01T16:34:16;8.10;99.90
57026;DHT22;43961;52.940;6.834;2023-04-01T16:44:52;7.90;99.90
57026;DHT22;43961;52.940;6.834;2023-04-01T16:47:22;7.90;99.90
57026;DHT22;43961;52.940;6.834;2023-04-01T16:50:06;7.90;99.90
57026;DHT22;43961;52.940;6.834;2023-04-01T16:55:20;7.70;99.90
57026;DHT22;43961;52.940;6.834;2023-04-01T16:57:55;7.70;99.90
57026;DHT22;43961;52.940;6.834;2023-04-01T17:00:37;7.60;99.90
57026;DHT22;43961;52.940;6.834;2023-04-01T17:03:12;7.60;99.90
57026;DHT22;43961;52.940;6.834;2023-04-01T17:06:02;7.60;99.90
57026;DHT22;43961;52.940;6.834;2023-04-01T17:08:52;7.60;99.90
57026;DHT22;43961;52.940;6.834;2023-04-01T17:11:26;7.50;99.90
57026;DHT22;43961;52.940;6.834;2023-04-01T17:23:27;7.50;99.90
57026;DHT22;43961;52.940;6.834;2023-04-01T17:25:39;7.40;99.90
57026;DHT22;43961;52.940;6.834;2023-04-01T17:39:20;7.20;99.90
57026;DHT22;43961;52.940;6.834;2023-04-01T17:42:00;7.10;99.90
57026;DHT22;43961;52.940;6.834;2023-04-01T17:44:47;7.10;99.90
57026;DHT22;43961;52.940;6.834;2023-04-01T17:47:41;7.00;99.90
57026;DHT22;43961;52.940;6.834;2023-04-01T17:50:22;6.90;99.90
57026;DHT22;43961;52.940;6.834;2023-04-01T18:01:13;6.70;99.90
57026;DHT22;43961;52.940;6.834;2023-04-01T18:06:52;6.70;99.90
57026;DHT22;43961;52.940;6.834;2023-04-01T18:20:54;6.60;99.90
57026;DHT22;43961;52.940;6.834;2023-04-01T18:23:31;6.50;99.90
57026;DHT22;43961;52.940;6.834;2023-04-01T18:26:23;6.50;99.90
57026;DHT22;43961;52.940;6.834;2023-04-01T18:29:23;6.50;99.90
57026;DHT22;43961;52.940;6.834;2023-04-01T18:32:00;6.40;99.90
57026;DHT22;43961;52.940;6.834;2023-04-01T18:34:49;6.40;99.90
57026;DHT22;43961;52.940;6.834;2023-04-01T18:37:28;6.40;99.90
57026;DHT22;43961;52.940;6.834;2023-04-01T18:45:34;6.40;99.90
57026;DHT22;43961;52.940;6.834;2023-04-01T18:50:59;6.30;99.90
57026;DHT22;43961;52.940;6.834;2023-04-01T18:53:41;6.30;99.90
57026;DHT22;43961;52.940;6.834;2023-04-01T18:56:15;6.30;99.90
57026;DHT22;43961;52.940;6.834;2023-04-01T18:58:52;6.30;99.90
57026;DHT22;43961;52.940;6.834;2023-04-01T19:01:47;6.30;99.90
57026;DHT22;43961;52.940;6.834;2023-04-01T19:04:33;6.30;99.90
57026;DHT22;43961;52.940;6.834;2023-04-01T19:09:48;6.20;99.90
57026;DHT22;43961;52.940;6.834;2023-04-01T19:18:13;6.20;99.90
57026;DHT22;43961;52.940;6.834;2023-04-01T19:21:11;6.20;99.90
57026;DHT22;43961;52.940;6.834;2023-04-01T19:26:22;6.10;99.90
57026;DHT22;43961;52.940;6.834;2023-04-01T19:34:26;6.10;99.90
57026;DHT22;43961;52.940;6.834;2023-04-01T19:36:54;6.10;99.90
57026;DHT22;43961;52.940;6.834;2023-04-01T19:50:55;6.10;99.90
57026;DHT22;43961;52.940;6.834;2023-04-01T19:56:20;6.00;99.90
57026;DHT22;43961;52.940;6.834;2023-04-01T19:58:58;6.00;99.90
57026;DHT22;43961;52.940;6.834;2023-04-01T20:04:04;5.90;99.90
57026;DHT22;43961;52.940;6.834;2023-04-01T20:09:44;5.90;99.90
57026;DHT22;43961;52.940;6.834;2023-04-01T20:14:56;5.90;99.90
57026;DHT22;43961;52.940;6.834;2023-04-01T20:20:02;5.80;99.90
57026;DHT22;43961;52.940;6.834;2023-04-01T20:25:37;5.80;99.90
57026;DHT22;43961;52.940;6.834;2023-04-01T20:39:24;5.70;99.90
57026;DHT22;43961;52.940;6.834;2023-04-01T20:50:29;5.60;99.90
57026;DHT22;43961;52.940;6.834;2023-04-01T20:53:55;5.60;99.90
57026;DHT22;43961;52.940;6.834;2023-04-01T20:56:13;5.50;99.90
57026;DHT22;43961;52.940;6.834;2023-04-01T21:07:46;5.50;99.90
57026;DHT22;43961;52.940;6.834;2023-04-01T21:10:48;5.50;99.90
57026;DHT22;43961;52.940;6.834;2023-04-01T21:16:06;5.40;99.90
57026;DHT22;43961;52.940;6.834;2023-04-01T21:21:25;5.40;99.90
57026;DHT22;43961;52.940;6.834;2023-04-01T21:37:33;5.30;99.90
57026;DHT22;43961;52.940;6.834;2023-04-01T21:48:25;5.30;99.90
57026;DHT22;43961;52.940;6.834;2023-04-01T22:04:52;5.20;99.90
57026;DHT22;43961;52.940;6.834;2023-04-01T22:07:45;5.20;99.90
57026;DHT22;43961;52.940;6.834;2023-04-01T22:13:23;5.10;99.90
57026;DHT22;43961;52.940;6.834;2023-04-01T22:18:57;5.10;99.90
57026;DHT22;43961;52.940;6.834;2023-04-01T22:21:40;5.10;99.90
57026;DHT22;43961;52.940;6.834;2023-04-01T22:27:26;5.00;99.90
57026;DHT22;43961;52.940;6.834;2023-04-01T22:32:24;5.00;99.90
57026;DHT22;43961;52.940;6.834;2023-04-01T22:40:21;4.90;99.90
57026;DHT22;43961;52.940;6.834;2023-04-01T22:42:56;4.90;99.90
57026;DHT22;43961;52.940;6.834;2023-04-01T22:48:04;4.90;99.90
57026;DHT22;43961;52.940;6.834;2023-04-01T22:53:46;4.80;99.90
57026;DHT22;43961;52.940;6.834;2023-04-01T22:56:35;4.80;99.90
57026;DHT22;43961;52.940;6.834;2023-04-01T22:59:10;4.70;99.90
57026;DHT22;43961;52.940;6.834;2023-04-01T23:01:44;4.70;99.90
57026;DHT22;43961;52.940;6.834;2023-04-01T23:04:15;4.60;99.90
57026;DHT22;43961;52.940;6.834;2023-04-01T23:06:48;4.60;99.90
57026;DHT22;43961;52.940;6.834;2023-04-01T23:09:16;4.60;99.90
57026;DHT22;43961;52.940;6.834;2023-04-01T23:14:43;4.60;99.90
57026;DHT22;43961;52.940;6.834;2023-04-01T23:17:34;4.50;99.90
57026;DHT22;43961;52.940;6.834;2023-04-01T23:22:53;4.50;99.90
57026;DHT22;43961;52.940;6.834;2023-04-01T23:26:04;4.50;99.90
57026;DHT22;43961;52.940;6.834;2023-04-01T23:29:01;4.50;99.90
57026;DHT22;43961;52.940;6.834;2023-04-01T23:31:37;4.40;99.90
57026;DHT22;43961;52.940;6.834;2023-04-01T23:34:21;4.50;99.90
57026;DHT22;43961;52.940;6.834;2023-04-01T23:36:50;4.40;99.90
57026;DHT22;43961;52.940;6.834;2023-04-01T23:39:25;4.40;99.90
57026;DHT22;43961;52.940;6.834;2023-04-01T23:41:55;4.40;99.90
57026;DHT22;43961;52.940;6.834;2023-04-01T23:44:23;4.40;99.90
57026;DHT22;43961;52.940;6.834;2023-04-01T23:46:51;4.40;99.90
57026;DHT22;43961;52.940;6.834;2023-04-01T23:49:21;4.30;99.90
57026;DHT22;43961;52.940;6.834;2023-04-01T23:51:55;4.30;99.90
57026;DHT22;43961;52.940;6.834;2023-04-01T23:56:56;4.30;99.90
57026;DHT22;43961;52.940;6.834;2023-04-01T23:59:33;4.30;99.90
